Aeroporto :
LOGIN :

Iscrizione | Disclaimer

   EN    FR    IT 

 










Sommario :    VFR   VFR Marginale   IFR   IFR Intensivo   IFR Molto Intensivo
Visibilità : 
Base nubi : 
>= 8 km
>= 3000ft
5 / 8 km
1000 / 3000 ft
1500m / 5 km
500 / 1000 ft
800 / 1500m
200 / 500 ft
< 800m
< 200 ft
Simboli :   Temporali  Nebbia  Neve Forte  Precipitazioni Forti  Vento > 20 kt
SIGMETs :   Varie  Temporali  Ghiacco  Turbolenza  Onda orograficha  Ceneri Vulcaniche






- Altitudine del aeroporto : 1766 ft


ETHL - Laupheim AB

ULTIMO METAR :
  • 212338Z 06010KT 9999 -RASN BKN007 BKN020 01/M00 Q1018 GRN

METARs OBSOLETI :
  • 212320Z 03007KT 9999 -RA BKN007 BKN028 02/01 Q1018 GRN
  • 212244Z 36003KT 9999 -RA BKN007 BKN028 02/00 Q1018 GRN
  • 212220Z 34002KT 9999 SCT012 BKN028 02/00 Q1018 BLU
  • 212120Z 30003KT 9999 FEW015 SCT028 BKN110 02/M00 Q1018 BLU
  • 212020Z 29002KT 9999 FEW015 SCT032 BKN080 02/00 Q1018 BLU
  • 211920Z 25002KT 9999 FEW020 SCT032 BKN090 03/01 Q1018 BLU

Previsioni scadute.



MetMap, La meteo Aeronautica in un colpo d'occhio ! - Copyright ORBIFLY Dicembre 2007 - Disclaimer

ORBIFLY MET'MAP TEAM :

Programmazione e sviluppo : Alexandra Zaïnal
Concezione : Baudouin d'Aumeries
Supporto tecnico e logistico : Manuel Goepfert
Aiuto : Marc-Olivier Méhu
Aiuto per la traduzione : Arnaldo La Scala




FONTI E CREDITI :

   NOAA